Shenandoah National Park, VA

2:36 PM EDT on October 21, 2014 (GMT -0400)
Lord Willing Dr. | Change Station
CLOSE
Current Station
Personal Weather Station
Location: Culpeper, VA
Elevation: 499 ft
Nearby Weather Stations

Elev 499 ft 38.54 °N, 77.94 °W | Updated 1 second ago

Mostly Cloudy
Mostly Cloudy
62.2 °F
Feels Like 62.2 °F
N
0.0
Wind Variable Wind from NNW
Gusts 4.0 mph

Today
High -- | Low -- °F
--% Chance of Precip.
Yesterday
High -- | Low -- °F
Precip. -- in
7:26 AM 6:25 PM
Waning Crescent, 5% visible
Pressure 29.82 in
Visibility 10.0 miles
Clouds Mostly Cloudy 6000 ft
Dew Point 54 °F
Humidity 74%
Rainfall 0.02 in
Snow Depth Not available.
UV 2 out of 12
Pollen 1.70 out of 12
Air Quality Not available.
Flu Activity Local Activity
METAR KCJR 211815Z AUTO 00000KT 10SM BKN060 22/07 A2982 RMK AO2

More Conditions Fewer Conditions

Pressure 29.82 in
Visibility 10.0 miles
Clouds Mostly Cloudy 6000 ft
Dew Point 54 °F
Humidity 74%
Rainfall 0.02 in
Snow Depth Not available.
UV 2 out of 12
Pollen 1.70 out of 12
Air Quality Not available.
Flu Activity Local Activity
METAR KCJR 211815Z AUTO 00000KT 10SM BKN060 22/07 A2982 RMK AO2

More Conditions Fewer Conditions

10-Day Weather Forecast

Almanac

Astronomy

Oct. 21, 2014 Rise Set
Actual Time 7:26 AM EDT 6:25 PM EDT
Civil Twilight 6:59 AM EDT 6:52 PM EDT
Nautical Twilight 6:28 AM EDT 7:23 PM EDT
Astronomical Twilight 5:58 AM EDT 7:53 PM EDT
Moon 5:10 AM EDT 5:17 PM EDT
Length of Visible Light 11h 52m
Length of Day
10h 58m
Tomorrow will be 2m 21s shorter.
Waning Crescent, 5% of the Moon is Illuminated
Today
Waning Crescent
Oct 23
New
Oct 30
First Quarter
Nov 6
Full
Nov 14
Last Quarter

Today's Extremes

State Highs State Lows

Community

WunderPhotos

Upload Photos

1,763,738 photos uploaded!

Nearby

Snow Depth

Station Depth Elevation
No new snow has been reported.

Earthquake Activity

City Distance Mag. Time & Date
No recent earthquake activity has been reported nearby.
Minimum magnitude displayed is 2.5.

Coastal Water Temperatures

Place Temperature
No Stations Reporting

Nearby Weather Stations